Time;durP1;ratioP1;P1;durP2;ratioP2;P2;SDS_P1;SDS_P2;PMS_P1;PMS_P2;Temp;Humidity;BMP_temperature;BMP_pressure;BME280_temperature;BME280_humidity;BME280_pressure;Samples;Min_cycle;Max_cycle;Signal;HPM_P1;HPM_P2
2023/07/20 00:01:50;;;;;;;4.93;1.97;;;13.00;99.90;;;;;;5007979;28;20844;-82
2023/07/20 00:04:17;;;;;;;4.07;1.40;;;13.00;99.90;;;;;;5024907;28;20232;-82
2023/07/20 00:06:44;;;;;;;1.73;1.40;;;13.10;99.90;;;;;;5008829;28;20594;-82
2023/07/20 00:09:11;;;;;;;2.80;1.53;;;13.10;99.90;;;;;;5024871;28;20250;-83
2023/07/20 00:11:39;;;;;;;3.53;1.30;;;13.20;99.90;;;;;;5008840;28;20224;-82
2023/07/20 00:14:07;;;;;;;1.93;1.57;;;13.20;99.90;;;;;;5003034;28;20604;-82
2023/07/20 00:16:34;;;;;;;2.97;1.40;;;13.20;99.90;;;;;;5022860;28;20220;-83
2023/07/20 00:19:01;;;;;;;2.30;1.40;;;13.30;99.90;;;;;;5000462;28;20257;-83
2023/07/20 00:21:28;;;;;;;2.10;1.60;;;13.30;99.90;;;;;;5007480;28;20311;-82
2023/07/20 00:23:55;;;;;;;3.00;1.50;;;13.40;99.90;;;;;;5020931;28;20228;-82
2023/07/20 00:26:22;;;;;;;2.63;1.70;;;13.40;99.90;;;;;;5020620;28;20225;-83
2023/07/20 00:28:52;;;;;;;3.57;1.80;;;13.40;99.90;;;;;;5023189;28;20556;-81
2023/07/20 00:31:21;;;;;;;2.80;1.53;;;13.50;99.90;;;;;;5018995;28;20223;-81
2023/07/20 00:33:48;;;;;;;2.37;1.57;;;13.50;99.90;;;;;;5011986;28;20256;-81
2023/07/20 00:36:15;;;;;;;3.40;1.80;;;13.60;99.90;;;;;;5004528;28;20614;-81
2023/07/20 00:38:43;;;;;;;1.80;1.53;;;13.60;99.90;;;;;;5024155;28;20306;-83
2023/07/20 00:41:10;;;;;;;3.33;1.83;;;13.70;99.90;;;;;;5004195;28;20672;-82
2023/07/20 00:43:36;;;;;;;5.30;1.90;;;13.70;99.90;;;;;;5005197;28;20314;-83
2023/07/20 00:46:04;;;;;;;3.70;1.70;;;13.80;99.90;;;;;;5020589;28;20228;-82
2023/07/20 00:48:32;;;;;;;2.43;1.70;;;13.80;99.90;;;;;;5021124;28;20346;-82
2023/07/20 00:51:01;;;;;;;2.20;1.40;;;13.80;99.90;;;;;;5012145;28;20232;-82
2023/07/20 00:53:28;;;;;;;2.67;1.50;;;13.90;99.90;;;;;;5032423;28;20714;-81
2023/07/20 00:55:55;;;;;;;2.67;1.33;;;13.90;99.90;;;;;;5022194;28;20963;-81
2023/07/20 00:58:22;;;;;;;2.87;1.60;;;14.00;99.90;;;;;;5003011;28;20306;-82
2023/07/20 01:00:49;;;;;;;1.80;1.33;;;14.00;99.90;;;;;;5021761;28;20239;-82
2023/07/20 01:03:15;;;;;;;2.70;1.50;;;14.00;99.90;;;;;;5025220;28;20237;-82
2023/07/20 01:36:44;;;;;;;2.63;1.80;;;14.00;99.90;;;;;;5023503;28;20215;-82
2023/07/20 01:39:12;;;;;;;3.23;2.20;;;14.00;99.90;;;;;;5024606;28;20217;-81
2023/07/20 01:41:39;;;;;;;4.00;1.90;;;13.90;99.90;;;;;;5012362;28;20245;-82
2023/07/20 01:44:06;;;;;;;2.33;2.00;;;13.90;99.90;;;;;;5011606;28;20227;-82
2023/07/20 01:46:33;;;;;;;2.10;1.90;;;13.80;99.90;;;;;;5042505;28;20818;-81
2023/07/20 01:49:00;;;;;;;3.97;2.20;;;13.80;99.90;;;;;;5030290;28;20289;-82
2023/07/20 01:51:27;;;;;;;3.20;2.27;;;13.80;99.90;;;;;;5011160;28;20962;-82
2023/07/20 01:53:55;;;;;;;4.33;2.90;;;13.80;99.90;;;;;;5012373;28;20269;-81
2023/07/20 01:56:22;;;;;;;3.13;2.30;;;13.80;99.90;;;;;;5009340;28;20286;-82
2023/07/20 01:58:48;;;;;;;2.73;2.53;;;13.80;99.90;;;;;;5042527;28;20262;-82
2023/07/20 02:01:15;;;;;;;3.77;2.50;;;13.80;99.90;;;;;;5041521;28;20222;-81
2023/07/20 02:03:42;;;;;;;4.67;2.80;;;13.80;99.90;;;;;;5025381;28;20244;-81
2023/07/20 02:06:09;;;;;;;3.37;2.33;;;13.70;99.90;;;;;;5026620;28;20213;-81
2023/07/20 02:08:35;;;;;;;3.77;2.80;;;13.80;99.90;;;;;;5026721;28;20422;-80
2023/07/20 02:11:04;;;;;;;3.63;2.70;;;13.70;99.90;;;;;;5010973;28;20231;-81
2023/07/20 02:13:31;;;;;;;5.60;2.23;;;13.70;99.90;;;;;;5014272;28;20214;-81
2023/07/20 02:15:58;;;;;;;3.80;2.73;;;13.80;99.90;;;;;;5025268;28;20876;-80
2023/07/20 02:18:25;;;;;;;4.47;2.60;;;13.70;99.90;;;;;;5039879;28;20304;-80
2023/07/20 02:20:54;;;;;;;3.23;2.80;;;13.70;99.90;;;;;;5010923;28;20310;-80
2023/07/20 02:23:20;;;;;;;3.60;2.80;;;13.70;99.90;;;;;;5010623;28;20246;-80
2023/07/20 02:25:47;;;;;;;4.40;2.63;;;13.70;99.90;;;;;;5011081;28;20235;-80
2023/07/20 02:28:16;;;;;;;3.30;2.87;;;13.70;99.90;;;;;;5025470;28;20285;-81
2023/07/20 02:30:42;;;;;;;2.80;2.60;;;13.70;99.90;;;;;;5026644;28;20290;-81
2023/07/20 02:33:09;;;;;;;3.13;2.83;;;13.70;99.90;;;;;;5024634;28;20231;-81
2023/07/20 02:35:36;;;;;;;4.23;3.00;;;13.70;99.90;;;;;;5007530;28;20306;-81
2023/07/20 02:38:03;;;;;;;3.03;2.63;;;13.70;99.90;;;;;;5026457;28;20618;-81
2023/07/20 02:40:30;;;;;;;3.27;2.93;;;13.70;99.90;;;;;;5027815;28;20237;-81
2023/07/20 02:42:56;;;;;;;5.83;3.00;;;13.70;99.90;;;;;;5010390;28;20237;-81
2023/07/20 02:45:25;;;;;;;4.87;3.27;;;13.70;99.90;;;;;;5029357;28;20224;-80
2023/07/20 02:47:52;;;;;;;4.00;3.53;;;13.70;99.90;;;;;;5015308;28;20219;-80
2023/07/20 02:50:19;;;;;;;3.83;3.07;;;13.70;99.90;;;;;;5013333;28;20282;-81
2023/07/20 02:52:46;;;;;;;3.67;3.37;;;13.70;99.90;;;;;;5030129;28;20269;-81
2023/07/20 02:55:12;;;;;;;3.57;3.27;;;13.70;99.90;;;;;;5012212;28;20257;-80
2023/07/20 02:57:39;;;;;;;3.93;3.10;;;13.70;99.90;;;;;;5011726;28;20244;-80
2023/07/20 03:00:07;;;;;;;4.90;3.60;;;13.70;99.90;;;;;;5009564;28;20618;-80
2023/07/20 03:02:35;;;;;;;4.50;3.30;;;13.70;99.90;;;;;;5027307;28;20228;-81
2023/07/20 03:05:05;;;;;;;4.60;3.20;;;13.70;99.90;;;;;;5010823;28;20855;-82
2023/07/20 03:07:32;;;;;;;4.97;3.20;;;13.70;99.90;;;;;;5007272;28;20233;-81
2023/07/20 03:09:59;;;;;;;4.53;3.50;;;13.70;99.90;;;;;;5007535;28;20228;-81
2023/07/20 03:12:26;;;;;;;4.43;3.50;;;13.70;99.90;;;;;;5007692;28;20233;-81
2023/07/20 03:14:56;;;;;;;3.60;3.30;;;13.70;99.90;;;;;;5007276;28;20405;-81
2023/07/20 03:17:23;;;;;;;5.30;3.30;;;13.70;99.90;;;;;;5013360;28;20216;-81
2023/07/20 03:19:52;;;;;;;3.50;3.20;;;13.60;99.90;;;;;;5014435;28;20246;-81
2023/07/20 03:22:19;;;;;;;3.87;3.23;;;13.60;99.90;;;;;;5027829;28;20223;-81
2023/07/20 03:24:46;;;;;;;3.90;3.07;;;13.60;99.90;;;;;;5028874;28;20257;-81
2023/07/20 03:27:12;;;;;;;4.33;3.53;;;13.60;99.90;;;;;;5026475;28;20225;-80
2023/07/20 03:29:39;;;;;;;3.93;2.73;;;13.60;99.90;;;;;;5007415;28;20299;-81
2023/07/20 03:32:07;;;;;;;3.97;3.27;;;13.60;99.90;;;;;;5010697;28;20745;-80
2023/07/20 03:34:33;;;;;;;3.83;3.43;;;13.60;99.90;;;;;;5006775;28;20250;-80
2023/07/20 03:37:04;;;;;;;5.37;3.17;;;13.60;99.90;;;;;;5005528;28;20213;-80
2023/07/20 03:39:31;;;;;;;3.40;3.10;;;13.60;99.90;;;;;;5013404;28;20239;-80
2023/07/20 03:41:59;;;;;;;3.87;3.37;;;13.60;99.90;;;;;;5026931;28;20262;-81
2023/07/20 03:44:25;;;;;;;4.00;3.27;;;13.60;99.90;;;;;;5014395;28;20252;-81
2023/07/20 03:46:52;;;;;;;4.33;3.93;;;13.60;99.90;;;;;;5029547;28;20309;-81
2023/07/20 03:49:19;;;;;;;3.90;3.50;;;13.60;99.90;;;;;;5004870;28;20229;-81
2023/07/20 03:51:45;;;;;;;3.70;3.30;;;13.60;99.90;;;;;;5026661;28;20678;-81
2023/07/20 03:54:14;;;;;;;3.33;3.03;;;13.60;99.90;;;;;;5012734;28;20284;-80
2023/07/20 03:56:40;;;;;;;3.67;2.70;;;13.60;99.90;;;;;;5010022;28;20329;-81
2023/07/20 03:59:07;;;;;;;3.47;3.07;;;13.60;99.90;;;;;;5009218;28;20245;-80
2023/07/20 04:01:36;;;;;;;4.97;2.90;;;13.60;99.90;;;;;;5016583;28;20310;-80
2023/07/20 04:04:05;;;;;;;3.47;2.70;;;13.60;99.90;;;;;;5041383;28;21135;-80
2023/07/20 04:06:32;;;;;;;3.37;2.73;;;13.60;99.90;;;;;;5040156;28;20723;-81
2023/07/20 04:08:58;;;;;;;3.43;3.13;;;13.60;99.90;;;;;;5030433;28;20262;-80
2023/07/20 04:11:27;;;;;;;4.37;3.63;;;13.70;99.90;;;;;;5010383;28;20254;-80
2023/07/20 04:13:54;;;;;;;5.47;3.40;;;13.70;99.90;;;;;;5030041;28;20221;-81
2023/07/20 04:16:21;;;;;;;3.50;3.17;;;13.70;99.90;;;;;;5031340;28;20508;-80
2023/07/20 04:18:48;;;;;;;4.63;3.40;;;13.70;99.90;;;;;;5032052;28;20779;-81
2023/07/20 04:21:15;;;;;;;3.53;3.00;;;13.70;99.90;;;;;;5018927;28;20713;-80
2023/07/20 04:23:41;;;;;;;3.30;3.00;;;13.80;99.90;;;;;;5010917;28;20298;-80
2023/07/20 04:26:08;;;;;;;3.70;3.40;;;13.80;99.90;;;;;;5030089;28;20309;-81
2023/07/20 04:28:36;;;;;;;5.83;3.23;;;13.80;99.90;;;;;;5012627;28;20225;-81
2023/07/20 04:31:13;;;;;;;3.30;3.00;;;13.80;99.90;;;;;;5033308;28;20228;-80
2023/07/20 04:33:40;;;;;;;3.60;2.87;;;13.80;99.90;;;;;;5009845;28;20241;-82
2023/07/20 04:36:07;;;;;;;5.60;3.50;;;13.80;99.90;;;;;;5023262;28;20225;-79
2023/07/20 04:38:36;;;;;;;5.97;3.57;;;13.90;99.90;;;;;;5022937;28;20230;-76
2023/07/20 04:41:11;;;;;;;3.07;2.77;;;13.90;99.90;;;;;;5008584;28;20223;-79
2023/07/20 04:43:44;;;;;;;4.50;3.13;;;13.90;99.90;;;;;;5010690;28;20226;-80
2023/07/20 04:46:11;;;;;;;3.20;2.80;;;13.90;99.90;;;;;;5015649;28;20226;-80
2023/07/20 04:48:40;;;;;;;3.63;3.23;;;14.00;99.90;;;;;;5013501;28;20270;-80
2023/07/20 04:51:07;;;;;;;3.30;2.83;;;14.00;99.90;;;;;;5013853;28;20230;-80
2023/07/20 04:53:34;;;;;;;3.10;2.80;;;14.00;99.90;;;;;;5035516;28;20257;-80
2023/07/20 04:56:01;;;;;;;3.50;3.20;;;14.10;99.90;;;;;;5011952;28;20318;-80
2023/07/20 04:58:29;;;;;;;4.50;3.07;;;14.10;99.90;;;;;;5014113;28;20241;-80
2023/07/20 05:00:57;;;;;;;4.40;3.10;;;14.20;99.90;;;;;;5015630;28;20218;-80
2023/07/20 05:03:24;;;;;;;4.73;3.10;;;14.30;99.90;;;;;;5043449;28;20233;-80
2023/07/20 05:05:51;;;;;;;3.30;2.90;;;14.30;99.90;;;;;;5012436;28;20221;-80
2023/07/20 05:08:18;;;;;;;3.27;2.87;;;14.30;99.90;;;;;;5010483;28;20693;-81
2023/07/20 05:10:45;;;;;;;3.07;2.77;;;14.40;99.90;;;;;;5009562;28;20280;-81
2023/07/20 05:13:12;;;;;;;4.77;3.07;;;14.50;99.90;;;;;;5011525;28;20239;-81
2023/07/20 05:15:39;;;;;;;3.20;2.73;;;14.50;99.90;;;;;;5031255;28;20234;-80
2023/07/20 05:18:09;;;;;;;3.30;2.90;;;14.50;99.90;;;;;;5011833;28;20218;-80
2023/07/20 05:20:37;;;;;;;3.70;2.80;;;14.50;99.90;;;;;;5017674;28;20277;-80
2023/07/20 05:23:04;;;;;;;4.37;2.70;;;14.50;99.90;;;;;;5015414;28;20276;-80
2023/07/20 05:25:31;;;;;;;3.87;3.03;;;14.50;99.90;;;;;;5032475;28;20233;-80
2023/07/20 05:27:58;;;;;;;2.67;2.47;;;14.50;99.90;;;;;;5032832;28;20321;-81
2023/07/20 05:30:24;;;;;;;2.83;2.40;;;14.50;99.90;;;;;;5033990;28;20295;-81
2023/07/20 05:32:52;;;;;;;3.13;2.43;;;14.50;99.90;;;;;;5035606;28;20235;-81
2023/07/20 05:35:20;;;;;;;3.77;2.30;;;14.40;99.90;;;;;;5034010;28;20285;-80
2023/07/20 05:37:47;;;;;;;4.83;2.40;;;14.40;99.90;;;;;;5033412;28;20231;-81
2023/07/20 05:40:18;;;;;;;3.47;2.10;;;14.40;99.90;;;;;;5013968;28;20246;-80
2023/07/20 05:42:45;;;;;;;2.23;2.03;;;14.40;99.90;;;;;;5013109;28;20228;-80
2023/07/20 05:45:12;;;;;;;3.03;2.03;;;14.40;99.90;;;;;;5014884;28;20336;-80
2023/07/20 05:47:38;;;;;;;4.37;2.67;;;14.40;99.90;;;;;;5033793;28;20228;-81
2023/07/20 05:50:06;;;;;;;3.40;2.30;;;14.50;99.90;;;;;;5032792;28;20234;-80
2023/07/20 05:52:34;;;;;;;2.67;1.60;;;14.50;99.90;;;;;;5015811;28;20234;-80
2023/07/20 05:55:01;;;;;;;2.93;1.90;;;14.50;99.90;;;;;;5031790;28;20237;-81
2023/07/20 05:57:27;;;;;;;2.70;1.90;;;14.50;99.90;;;;;;5032090;28;20230;-81
2023/07/20 05:59:54;;;;;;;2.67;1.93;;;14.50;99.90;;;;;;5032578;28;20324;-80
2023/07/20 06:02:21;;;;;;;2.33;1.90;;;14.50;99.90;;;;;;5003235;28;20239;-80
2023/07/20 06:04:48;;;;;;;2.53;1.70;;;14.50;99.90;;;;;;5034854;28;21073;-80
2023/07/20 06:07:14;;;;;;;3.33;1.97;;;14.50;99.90;;;;;;5017486;28;20583;-80
2023/07/20 06:09:42;;;;;;;2.07;1.63;;;14.50;99.90;;;;;;5017601;28;20237;-80
2023/07/20 06:12:10;;;;;;;2.33;1.60;;;14.50;99.90;;;;;;5035665;28;20275;-80
2023/07/20 06:14:37;;;;;;;1.70;1.60;;;14.60;99.90;;;;;;5017202;28;20238;-80
2023/07/20 06:17:03;;;;;;;1.83;1.30;;;14.60;99.90;;;;;;5034536;28;20236;-80
2023/07/20 06:19:30;;;;;;;2.43;1.20;;;14.60;99.90;;;;;;5032778;28;20235;-80
2023/07/20 06:21:57;;;;;;;2.23;1.17;;;14.70;99.90;;;;;;5031596;28;20243;-80
2023/07/20 06:24:23;;;;;;;2.87;1.30;;;14.70;99.90;;;;;;5016280;28;20319;-80
2023/07/20 06:26:51;;;;;;;2.80;1.20;;;14.70;99.90;;;;;;5034507;28;20226;-82
2023/07/20 06:29:19;;;;;;;2.00;1.10;;;14.80;99.90;;;;;;5011504;28;20729;-79
2023/07/20 06:31:45;;;;;;;2.67;1.37;;;14.90;99.90;;;;;;5024870;28;20223;-79
2023/07/20 06:34:12;;;;;;;3.00;1.30;;;15.00;99.90;;;;;;5033864;28;20221;-81
2023/07/20 06:36:39;;;;;;;2.70;1.17;;;15.10;99.90;;;;;;5016636;28;20239;-81
2023/07/20 06:39:06;;;;;;;1.60;1.20;;;15.20;99.90;;;;;;5036137;28;20225;-80
2023/07/20 06:41:32;;;;;;;3.27;1.27;;;15.40;99.90;;;;;;5017653;28;20266;-80
2023/07/20 06:44:00;;;;;;;4.67;1.30;;;15.50;99.90;;;;;;5046409;28;20229;-80
2023/07/20 06:46:27;;;;;;;2.63;1.10;;;15.60;99.90;;;;;;5034744;28;20246;-80
2023/07/20 06:48:54;;;;;;;4.10;1.30;;;15.80;99.90;;;;;;5048125;28;20235;-80
2023/07/20 06:51:21;;;;;;;2.73;1.33;;;15.90;99.90;;;;;;5033848;28;20221;-80
2023/07/20 06:53:48;;;;;;;1.70;1.17;;;16.20;99.90;;;;;;5017535;28;20224;-80
2023/07/20 06:56:15;;;;;;;2.83;1.40;;;16.40;99.90;;;;;;5020522;28;20231;-80
2023/07/20 06:58:41;;;;;;;3.40;1.80;;;16.70;99.90;;;;;;5023970;28;20718;-80
2023/07/20 07:01:09;;;;;;;1.53;1.00;;;17.00;99.90;;;;;;5032638;28;20219;-80
2023/07/20 07:03:36;;;;;;;1.83;1.13;;;17.20;99.90;;;;;;5016332;28;20233;-80
2023/07/20 07:06:03;;;;;;;2.90;1.10;;;17.30;99.90;;;;;;5037410;28;20220;-80
2023/07/20 07:08:30;;;;;;;1.93;1.00;;;17.40;99.90;;;;;;5034714;28;20224;-80
2023/07/20 07:10:56;;;;;;;4.23;1.23;;;17.40;99.90;;;;;;5033854;28;20315;-80
2023/07/20 07:13:23;;;;;;;2.78;0.88;;;17.50;99.90;;;;;;5015550;28;20235;-80
2023/07/20 07:15:50;;;;;;;3.67;1.13;;;17.70;99.90;;;;;;5042984;28;20734;-80
2023/07/20 07:18:20;;;;;;;1.60;0.85;;;18.00;99.90;;;;;;5017991;28;20612;-80
2023/07/20 07:20:52;;;;;;;1.50;0.80;;;18.30;99.90;;;;;;5026206;28;20316;-80
2023/07/20 07:23:18;;;;;;;3.67;1.00;;;18.80;99.90;;;;;;5026901;28;20597;-80
2023/07/20 07:25:45;;;;;;;2.53;1.00;;;19.20;99.90;;;;;;5024333;28;20233;-80
2023/07/20 07:28:13;;;;;;;2.60;0.90;;;19.70;99.90;;;;;;5032278;28;20299;-80
2023/07/20 07:30:40;;;;;;;2.85;0.80;;;20.30;99.90;;;;;;5038481;28;20248;-80
2023/07/20 07:33:06;;;;;;;2.92;1.27;;;20.90;99.90;;;;;;5028741;28;20232;-80
2023/07/20 07:35:34;;;;;;;2.30;0.95;;;21.40;99.90;;;;;;5025653;28;20270;-80
2023/07/20 07:38:01;;;;;;;1.98;1.10;;;21.60;99.90;;;;;;5038510;28;20232;-80
2023/07/20 07:40:28;;;;;;;2.63;1.00;;;21.70;99.90;;;;;;5016180;28;20221;-80
2023/07/20 07:42:54;;;;;;;2.80;1.08;;;21.50;99.90;;;;;;5033221;28;20233;-80
2023/07/20 07:45:21;;;;;;;2.33;1.00;;;21.20;99.90;;;;;;5031700;28;20235;-80
2023/07/20 07:47:48;;;;;;;2.03;1.20;;;20.90;99.90;;;;;;5031066;28;20221;-81
2023/07/20 07:50:15;;;;;;;2.60;1.30;;;20.70;99.90;;;;;;5015432;28;20260;-81
2023/07/20 07:52:43;;;;;;;3.13;1.27;;;20.60;99.90;;;;;;5044490;28;20233;-80
2023/07/20 07:55:09;;;;;;;3.47;1.42;;;20.50;99.90;;;;;;5030033;28;20229;-80
2023/07/20 07:57:36;;;;;;;2.30;1.25;;;20.30;99.90;;;;;;5027449;28;20228;-80
2023/07/20 08:00:04;;;;;;;2.55;1.38;;;20.10;99.90;;;;;;5027203;28;20315;-80
2023/07/20 08:02:31;;;;;;;2.90;1.55;;;19.80;99.90;;;;;;5027240;28;20802;-80
2023/07/20 08:04:58;;;;;;;4.33;1.33;;;19.50;99.90;;;;;;5034428;28;20220;-80
2023/07/20 08:07:25;;;;;;;3.08;1.10;;;19.10;99.90;;;;;;5017901;28;20225;-80
2023/07/20 08:09:53;;;;;;;4.47;1.40;;;18.80;99.90;;;;;;5027236;28;20778;-79
2023/07/20 08:12:20;;;;;;;2.53;1.70;;;18.50;99.90;;;;;;5012897;28;20597;-80
2023/07/20 08:14:46;;;;;;;3.30;1.60;;;18.30;99.90;;;;;;5023414;28;20302;-81
2023/07/20 08:17:13;;;;;;;2.42;1.50;;;18.20;99.90;;;;;;5026196;28;20231;-80
2023/07/20 08:19:42;;;;;;;4.10;2.05;;;18.40;99.90;;;;;;5016402;28;20816;-80
2023/07/20 08:22:08;;;;;;;3.53;1.88;;;18.80;99.90;;;;;;5032332;28;20275;-80
2023/07/20 08:24:35;;;;;;;3.13;1.50;;;19.30;99.90;;;;;;5015352;28;20240;-80
2023/07/20 08:27:04;;;;;;;3.53;1.50;;;19.90;99.90;;;;;;5032860;28;20235;-80
2023/07/20 08:29:31;;;;;;;4.57;1.75;;;20.60;99.90;;;;;;5033206;28;20227;-80
2023/07/20 08:31:58;;;;;;;3.30;1.90;;;21.20;99.90;;;;;;5033606;28;20625;-80
2023/07/20 08:34:24;;;;;;;4.85;1.73;;;21.70;99.90;;;;;;5034299;28;20267;-80
2023/07/20 08:36:51;;;;;;;4.70;2.33;;;22.10;99.90;;;;;;5017221;28;20605;-81
2023/07/20 08:39:18;;;;;;;3.85;1.83;;;22.30;99.90;;;;;;5025132;28;20231;-80
2023/07/20 08:41:45;;;;;;;4.93;2.38;;;22.50;99.90;;;;;;5033868;28;20224;-80
2023/07/20 08:44:14;;;;;;;6.78;1.80;;;22.70;99.90;;;;;;5014022;28;20224;-80
2023/07/20 08:46:42;;;;;;;3.63;2.05;;;23.10;99.90;;;;;;5015023;28;20714;-80
2023/07/20 08:49:09;;;;;;;4.00;1.63;;;23.30;99.90;;;;;;5035855;28;20220;-81
2023/07/20 08:51:37;;;;;;;3.92;1.80;;;23.40;99.90;;;;;;5053710;28;20230;-80
2023/07/20 08:54:04;;;;;;;4.57;1.77;;;23.50;99.20;;;;;;5031639;28;20267;-80
2023/07/20 08:56:34;;;;;;;4.90;1.67;;;23.60;99.00;;;;;;5017707;28;20283;-80
2023/07/20 08:59:01;;;;;;;3.42;1.85;;;23.70;98.20;;;;;;5060399;28;20746;-80
2023/07/20 09:01:30;;;;;;;3.45;1.75;;;23.80;98.60;;;;;;5037227;28;20635;-80
2023/07/20 09:03:57;;;;;;;5.15;1.90;;;23.90;98.10;;;;;;5050365;28;20227;-80
2023/07/20 09:06:24;;;;;;;4.07;1.75;;;24.00;97.60;;;;;;5023812;28;20240;-80
2023/07/20 09:08:51;;;;;;;3.85;1.50;;;24.00;97.00;;;;;;5015338;28;20233;-80
2023/07/20 09:11:18;;;;;;;3.20;2.10;;;23.90;95.90;;;;;;5020453;28;20220;-80
2023/07/20 09:13:44;;;;;;;2.92;1.40;;;23.70;95.80;;;;;;5019949;28;20244;-80
2023/07/20 09:16:14;;;;;;;5.38;1.80;;;23.40;95.60;;;;;;5024797;28;20251;-80
2023/07/20 09:18:42;;;;;;;4.75;1.98;;;23.10;96.10;;;;;;5044651;28;20789;-80
2023/07/20 09:21:09;;;;;;;5.20;2.03;;;23.00;96.40;;;;;;5039322;28;20227;-80
2023/07/20 09:23:38;;;;;;;3.40;1.73;;;23.00;96.80;;;;;;5032861;28;20225;-80
2023/07/20 09:26:10;;;;;;;3.92;1.60;;;23.10;96.20;;;;;;5032785;28;20311;-80
2023/07/20 09:28:43;;;;;;;3.22;1.40;;;23.30;96.00;;;;;;5034667;28;20224;-80
2023/07/20 09:31:17;;;;;;;3.95;1.70;;;23.60;96.30;;;;;;5015723;28;20224;-80
2023/07/20 09:33:46;;;;;;;2.72;1.52;;;23.90;95.80;;;;;;5015026;28;20251;-80
2023/07/20 09:36:13;;;;;;;3.97;1.88;;;24.40;95.80;;;;;;5015770;28;20227;-81
2023/07/20 09:38:40;;;;;;;5.65;2.25;;;24.70;96.50;;;;;;5032838;28;20229;-81
2023/07/20 09:41:08;;;;;;;5.93;2.00;;;24.90;98.20;;;;;;5031402;28;20217;-80
2023/07/20 09:43:35;;;;;;;2.95;1.30;;;24.90;97.70;;;;;;5025407;28;20254;-79
2023/07/20 09:46:02;;;;;;;2.28;1.10;;;24.60;96.50;;;;;;5055065;28;20221;-79
2023/07/20 09:48:30;;;;;;;2.95;1.17;;;23.90;97.10;;;;;;5044582;28;20320;-80
2023/07/20 09:50:58;;;;;;;3.00;1.33;;;23.30;97.80;;;;;;5029840;28;20329;-80
2023/07/20 09:53:26;;;;;;;2.10;1.00;;;22.60;99.60;;;;;;5028963;28;20260;-81
2023/07/20 09:55:54;;;;;;;31.27;2.85;;;22.20;99.90;;;;;;5049797;28;20228;-79
2023/07/20 09:58:22;;;;;;;3.40;1.20;;;21.90;99.90;;;;;;5028274;28;20247;-78
2023/07/20 10:00:52;;;;;;;1.67;0.90;;;21.80;99.90;;;;;;5033553;28;20253;-78
2023/07/20 10:03:20;;;;;;;2.22;1.10;;;21.80;99.90;;;;;;5032523;28;20225;-78
2023/07/20 10:05:52;;;;;;;2.33;0.73;;;22.00;99.90;;;;;;5032312;28;20892;-78
2023/07/20 10:08:23;;;;;;;1.50;0.70;;;22.10;99.90;;;;;;5027857;28;20225;-79
2023/07/20 10:10:50;;;;;;;2.13;0.75;;;22.30;99.90;;;;;;5014757;28;20250;-78
2023/07/20 10:13:19;;;;;;;3.03;2.55;;;22.50;99.90;;;;;;5041283;28;20289;-79
2023/07/20 10:15:51;;;;;;;2.75;0.80;;;22.70;99.90;;;;;;5028703;28;20220;-78
2023/07/20 10:18:23;;;;;;;2.95;0.85;;;23.00;99.90;;;;;;5022351;28;20218;-78
2023/07/20 10:20:52;;;;;;;1.98;0.80;;;23.30;99.90;;;;;;5026813;28;20757;-78
2023/07/20 10:23:20;;;;;;;2.67;0.90;;;23.60;99.90;;;;;;5024458;28;20224;-79
2023/07/20 10:25:47;;;;;;;1.98;0.80;;;23.80;99.90;;;;;;5027674;28;20283;-78
2023/07/20 10:28:15;;;;;;;2.42;0.98;;;24.10;99.90;;;;;;5030363;28;20224;-78
2023/07/20 10:30:43;;;;;;;1.38;0.80;;;24.30;99.90;;;;;;5027987;28;20231;-79
2023/07/20 10:33:10;;;;;;;1.67;0.70;;;24.50;98.80;;;;;;5021168;28;20698;-79
2023/07/20 10:35:52;;;;;;;2.75;1.17;;;24.70;97.80;;;;;;5025639;28;20229;-79
2023/07/20 10:38:20;;;;;;;1.50;0.75;;;24.90;96.30;;;;;;5021936;28;20214;-77
2023/07/20 10:40:55;;;;;;;1.40;0.70;;;25.10;95.70;;;;;;5024497;28;20578;-78
2023/07/20 10:43:22;;;;;;;0.90;0.60;;;25.10;93.80;;;;;;5023309;28;20231;-79
2023/07/20 10:45:50;;;;;;;1.35;0.70;;;25.00;94.30;;;;;;5011247;28;20231;-78
2023/07/20 10:48:20;;;;;;;2.03;0.75;;;24.70;93.30;;;;;;5030946;28;20244;-78
2023/07/20 10:51:02;;;;;;;3.65;0.90;;;24.40;93.10;;;;;;5029419;28;20235;-79
2023/07/20 10:53:30;;;;;;;3.42;1.00;;;24.10;95.90;;;;;;5010682;28;20231;-79
2023/07/20 10:56:08;;;;;;;3.95;1.00;;;23.50;96.30;;;;;;5024086;28;21022;-79
2023/07/20 10:58:35;;;;;;;4.20;1.10;;;22.80;98.60;;;;;;5022673;28;20229;-79
2023/07/20 11:01:02;;;;;;;2.20;0.90;;;22.20;99.90;;;;;;5026566;28;20236;-78
2023/07/20 11:03:34;;;;;;;3.15;1.10;;;21.80;99.90;;;;;;5028078;28;20225;-78
2023/07/20 11:06:34;;;;;;;3.17;1.05;;;21.50;99.90;;;;;;5024311;28;20268;-78
2023/07/20 11:09:10;;;;;;;3.60;0.75;;;21.30;99.90;;;;;;4985838;28;20263;-78
2023/07/20 11:11:39;;;;;;;3.28;0.90;;;21.10;99.90;;;;;;5013128;28;20267;-79
2023/07/20 11:14:07;;;;;;;1.83;0.88;;;21.00;99.90;;;;;;5024903;28;20882;-79
2023/07/20 11:16:39;;;;;;;1.55;0.73;;;20.90;99.90;;;;;;5003351;28;20236;-79
2023/07/20 11:19:14;;;;;;;2.95;1.00;;;20.80;99.90;;;;;;5027179;28;20244;-79
2023/07/20 11:21:44;;;;;;;6.97;1.60;;;20.70;99.90;;;;;;5013181;28;20224;-79
2023/07/20 11:24:13;;;;;;;2.53;0.90;;;20.60;99.90;;;;;;5025048;28;20335;-77
2023/07/20 11:26:48;;;;;;;2.85;1.20;;;20.40;99.90;;;;;;5024964;28;20881;-77
2023/07/20 11:29:16;;;;;;;11.53;2.30;;;20.20;99.90;;;;;;5024968;28;20212;-79
2023/07/20 11:31:44;;;;;;;4.63;1.40;;;19.90;99.90;;;;;;5026371;28;20231;-78
2023/07/20 11:34:13;;;;;;;2.43;0.90;;;19.60;99.90;;;;;;5025469;28;20338;-77
2023/07/20 11:36:42;;;;;;;2.78;1.30;;;19.30;99.90;;;;;;5023759;28;20879;-77
2023/07/20 11:39:10;;;;;;;4.57;1.27;;;19.00;99.90;;;;;;5024519;28;20235;-78
2023/07/20 11:41:39;;;;;;;4.43;1.10;;;18.70;99.90;;;;;;5024542;28;20244;-78
2023/07/20 11:44:07;;;;;;;7.00;1.38;;;18.60;99.90;;;;;;5024051;28;20229;-78
2023/07/20 11:46:34;;;;;;;3.25;1.30;;;18.50;99.90;;;;;;5028431;28;20224;-78
2023/07/20 11:49:01;;;;;;;2.80;0.90;;;18.50;99.90;;;;;;5025753;28;20932;-78
2023/07/20 11:51:29;;;;;;;2.40;0.90;;;18.60;99.90;;;;;;5019549;28;20228;-78
2023/07/20 11:53:56;;;;;;;4.05;1.15;;;18.60;99.90;;;;;;5024821;28;20231;-78
2023/07/20 11:56:24;;;;;;;1.65;0.90;;;18.70;99.90;;;;;;5019488;28;20227;-78
2023/07/20 11:58:56;;;;;;;1.63;0.60;;;18.80;99.90;;;;;;5011051;28;20311;-78
2023/07/20 12:01:24;;;;;;;1.95;0.60;;;18.90;99.90;;;;;;5006168;28;20220;-79
2023/07/20 12:03:51;;;;;;;1.98;0.70;;;19.10;99.90;;;;;;5025420;28;20735;-79
2023/07/20 12:06:17;;;;;;;2.35;0.77;;;19.20;99.90;;;;;;5027911;28;20810;-79
2023/07/20 12:08:45;;;;;;;1.73;0.50;;;19.30;99.90;;;;;;5029263;28;20627;-79
2023/07/20 12:11:11;;;;;;;1.73;0.60;;;19.40;99.90;;;;;;5025083;28;20914;-79
2023/07/20 12:13:39;;;;;;;3.35;0.75;;;19.50;99.90;;;;;;5026280;28;20232;-78
2023/07/20 12:16:14;;;;;;;2.05;0.80;;;19.60;99.90;;;;;;5027775;28;20220;-79
2023/07/20 12:18:41;;;;;;;2.40;0.55;;;19.50;99.90;;;;;;5029653;28;20223;-79
2023/07/20 12:21:08;;;;;;;2.53;0.60;;;19.40;99.90;;;;;;5021165;28;20229;-78
2023/07/20 12:23:40;;;;;;;1.93;0.73;;;19.30;99.90;;;;;;5015149;28;20742;-78
2023/07/20 12:26:10;;;;;;;2.05;0.93;;;19.10;99.90;;;;;;5026345;28;20315;-78
2023/07/20 12:28:41;;;;;;;3.55;1.02;;;19.00;99.90;;;;;;5011573;28;20248;-78
2023/07/20 12:31:09;;;;;;;2.80;0.93;;;18.80;99.90;;;;;;5023737;28;20228;-79
2023/07/20 12:33:37;;;;;;;4.10;1.20;;;18.50;99.90;;;;;;5024761;28;20244;-78
2023/07/20 12:36:06;;;;;;;3.53;1.13;;;18.30;99.90;;;;;;5012321;28;20894;-79
2023/07/20 12:38:33;;;;;;;4.23;0.87;;;18.10;99.90;;;;;;5012003;28;20263;-78
2023/07/20 12:41:02;;;;;;;3.93;1.10;;;17.90;99.90;;;;;;5024572;28;20225;-79
2023/07/20 12:43:29;;;;;;;3.23;0.83;;;17.70;99.90;;;;;;5024650;28;20239;-79
2023/07/20 12:45:56;;;;;;;2.23;1.00;;;17.50;99.90;;;;;;5025793;28;20246;-79
2023/07/20 12:48:23;;;;;;;3.33;1.07;;;17.40;99.90;;;;;;5010974;28;20213;-78
2023/07/20 12:50:51;;;;;;;9.13;1.73;;;17.30;99.90;;;;;;5024551;28;20230;-78
2023/07/20 12:53:18;;;;;;;4.57;1.43;;;17.30;99.90;;;;;;5025346;28;20224;-79
2023/07/20 12:55:45;;;;;;;3.53;1.00;;;17.30;99.90;;;;;;5023501;28;20230;-78
2023/07/20 12:58:14;;;;;;;2.30;0.83;;;17.40;99.90;;;;;;5046550;28;20806;-79
2023/07/20 13:00:41;;;;;;;4.30;1.10;;;17.50;99.90;;;;;;5025344;28;20220;-79
2023/07/20 13:03:08;;;;;;;1.80;0.90;;;17.60;99.90;;;;;;5024937;28;20245;-78
2023/07/20 13:05:35;;;;;;;3.07;1.00;;;17.70;99.90;;;;;;5027240;28;20223;-78
2023/07/20 13:08:05;;;;;;;3.50;1.10;;;17.70;99.90;;;;;;5021994;28;20232;-78
2023/07/20 13:10:32;;;;;;;3.50;1.17;;;17.80;99.90;;;;;;5012518;28;20316;-79
2023/07/20 13:12:58;;;;;;;3.97;1.37;;;17.90;99.90;;;;;;5014039;28;20320;-79
2023/07/20 13:15:31;;;;;;;3.57;1.17;;;17.90;99.90;;;;;;5024582;28;20220;-79
2023/07/20 13:17:58;;;;;;;2.03;0.90;;;18.00;99.90;;;;;;5010518;28;20240;-78
2023/07/20 13:20:25;;;;;;;6.87;1.40;;;18.20;99.90;;;;;;5026665;28;20232;-78
2023/07/20 13:22:52;;;;;;;5.45;1.08;;;18.30;99.90;;;;;;5023755;28;20846;-79